Time;durP1;ratioP1;P1;durP2;ratioP2;P2;SDS_P1;SDS_P2;PMS_P1;PMS_P2;Temp;Humidity;BMP_temperature;BMP_pressure;BME280_temperature;BME280_humidity;BME280_pressure;Samples;Min_cycle;Max_cycle;Signal;HPM_P1;HPM_P2
2023/10/01 01:13:28;;;;;;;;;;;;;;;13.16;75.26;100870.72;1003936;54;52140;-84
2023/10/01 01:18:06;;;;;;;;;;;;;;;13.10;75.44;100861.41;1076718;54;2154;-86
2023/10/01 01:20:43;;;;;;;;;;;;;;;13.17;74.87;100862.53;1088611;47;921;-82
2023/10/01 01:21:44;;;;;;;;;;;;;;;13.14;75.75;100861.97;1088853;54;1098;-82
2023/10/01 01:27:18;;;;;;;;;;;;;;;13.22;74.42;100862.09;1088774;54;956;-83
2023/10/01 02:21:16;;;;;;;;;;;;;;;12.83;75.11;100854.03;1088486;54;889;-84
2023/10/01 02:25:49;;;;;;;;;;;;;;;12.86;74.92;100846.56;1087770;54;1016;-84
2023/10/01 02:26:59;;;;;;;;;;;;;;;12.80;75.69;100842.59;1088568;54;1495;-83
2023/10/01 02:28:12;;;;;;;;;;;;;;;12.72;75.32;100841.59;1088330;47;1588;-81
2023/10/01 02:29:13;;;;;;;;;;;;;;;12.66;76.11;100850.22;1088368;54;1074;-84
2023/10/01 02:30:21;;;;;;;;;;;;;;;12.56;76.03;100851.06;1088139;54;1138;-84
2023/10/01 02:31:22;;;;;;;;;;;;;;;12.54;76.30;100844.09;1088549;54;1110;-83
2023/10/01 02:32:28;;;;;;;;;;;;;;;12.52;76.10;100844.25;1088468;54;1445;-84
2023/10/01 02:33:55;;;;;;;;;;;;;;;12.48;76.06;100845.50;1088561;54;963;-83
2023/10/01 02:34:56;;;;;;;;;;;;;;;12.37;76.34;100840.28;1088496;47;948;-83
2023/10/01 02:36:02;;;;;;;;;;;;;;;12.24;76.81;100846.72;1088371;54;940;-82
2023/10/01 02:37:09;;;;;;;;;;;;;;;12.21;76.88;100838.94;1088539;54;957;-83
2023/10/01 02:39:30;;;;;;;;;;;;;;;12.20;77.35;100845.28;1088556;47;859;-83
2023/10/01 02:40:40;;;;;;;;;;;;;;;12.17;77.35;100842.91;1088504;54;938;-84
2023/10/01 02:42:03;;;;;;;;;;;;;;;12.16;77.90;100852.75;1088472;54;1070;-83
2023/10/01 04:13:20;;;;;;;;;;;;;;;12.06;77.21;100811.66;1087778;54;1238;-83
2023/10/01 04:14:23;;;;;;;;;;;;;;;12.07;77.16;100809.84;1088938;54;957;-84
2023/10/01 04:15:40;;;;;;;;;;;;;;;12.09;76.69;100810.56;1088594;46;862;-82
2023/10/01 04:16:46;;;;;;;;;;;;;;;12.08;76.58;100800.84;1088569;46;930;-83
2023/10/01 04:18:09;;;;;;;;;;;;;;;12.07;76.67;100804.50;1088588;47;925;-83
2023/10/01 04:19:24;;;;;;;;;;;;;;;12.00;76.66;100799.66;1088637;54;1868;-82
2023/10/01 04:20:28;;;;;;;;;;;;;;;11.95;76.81;100799.19;1088575;47;937;-82
2023/10/01 04:21:29;;;;;;;;;;;;;;;11.92;76.80;100796.78;1088555;54;1023;-81
2023/10/01 04:22:35;;;;;;;;;;;;;;;11.89;77.09;100790.84;1088558;54;1396;-82
2023/10/01 04:23:40;;;;;;;;;;;;;;;11.86;77.08;100797.31;1088520;54;1162;-81
2023/10/01 04:25:00;;;;;;;;;;;;;;;11.88;76.98;100784.66;1088283;47;951;-81
2023/10/01 04:26:06;;;;;;;;;;;;;;;11.85;77.12;100780.38;1088107;54;1487;-80
2023/10/01 04:27:23;;;;;;;;;;;;;;;11.82;77.21;100783.34;1088290;46;1012;-81
2023/10/01 04:28:31;;;;;;;;;;;;;;;11.83;77.39;100781.50;1088232;47;1038;-82
2023/10/01 04:29:44;;;;;;;;;;;;;;;11.84;77.25;100788.56;1088394;54;951;-82
2023/10/01 04:30:51;;;;;;;;;;;;;;;11.88;77.00;100791.81;1088506;47;965;-82
2023/10/01 04:32:00;;;;;;;;;;;;;;;11.82;77.27;100795.88;1088564;54;1063;-82
2023/10/01 04:33:16;;;;;;;;;;;;;;;11.80;77.55;100797.88;1088384;54;1404;-83
2023/10/01 04:34:20;;;;;;;;;;;;;;;11.76;77.68;100793.75;1088533;54;1153;-82
2023/10/01 04:35:27;;;;;;;;;;;;;;;11.77;77.46;100798.97;1088509;54;935;-82
2023/10/01 04:36:32;;;;;;;;;;;;;;;11.82;77.54;100803.94;1088588;54;919;-81
2023/10/01 04:37:41;;;;;;;;;;;;;;;11.83;77.36;100802.94;1088145;47;1062;-81
2023/10/01 04:38:43;;;;;;;;;;;;;;;11.87;77.22;100804.38;1087906;47;1866;-80
2023/10/01 04:39:49;;;;;;;;;;;;;;;11.93;77.23;100797.66;1087852;47;1459;-80
2023/10/01 04:40:52;;;;;;;;;;;;;;;11.88;77.21;100800.72;1088083;54;1091;-82
2023/10/01 04:41:59;;;;;;;;;;;;;;;11.86;77.27;100800.00;1088433;47;984;-83
2023/10/01 04:43:04;;;;;;;;;;;;;;;11.77;77.86;100804.31;1088252;47;1300;-82
2023/10/01 04:44:13;;;;;;;;;;;;;;;11.75;78.54;100805.44;1088282;47;911;-83
2023/10/01 04:45:33;;;;;;;;;;;;;;;11.77;78.26;100814.22;1088238;47;980;-82
2023/10/01 04:46:40;;;;;;;;;;;;;;;11.80;78.67;100811.28;1088545;54;959;-82
2023/10/01 04:58:29;;;;;;;;;;;;;;;11.59;77.98;100830.91;1081613;54;1728;-84
2023/10/01 17:48:20;;;;;;;;;;;;;;;21.38;45.14;100548.81;1087629;54;1301;-84
2023/10/01 17:49:26;;;;;;;;;;;;;;;21.33;45.53;100537.72;1088143;47;945;-80
2023/10/01 17:50:31;;;;;;;;;;;;;;;21.28;45.20;100540.22;1088103;54;962;-81
2023/10/01 17:51:35;;;;;;;;;;;;;;;21.24;45.50;100539.78;1087799;54;1109;-79
2023/10/01 17:52:42;;;;;;;;;;;;;;;21.16;45.53;100542.69;1088436;54;1361;-83
2023/10/01 17:53:50;;;;;;;;;;;;;;;21.12;46.21;100538.69;1088118;47;949;-84
2023/10/01 17:55:00;;;;;;;;;;;;;;;21.08;46.19;100538.25;1088116;47;912;-83
2023/10/01 17:56:19;;;;;;;;;;;;;;;21.01;46.14;100543.66;1088069;54;1011;-82
2023/10/01 17:57:26;;;;;;;;;;;;;;;20.94;46.37;100544.66;1086848;47;1502;-80
2023/10/01 17:58:34;;;;;;;;;;;;;;;20.92;46.32;100544.03;1086408;54;1166;-80
2023/10/01 17:59:39;;;;;;;;;;;;;;;20.89;45.93;100545.25;1087120;54;1865;-81
2023/10/01 18:00:42;;;;;;;;;;;;;;;20.80;46.54;100547.31;1087031;54;1040;-80
2023/10/01 18:01:50;;;;;;;;;;;;;;;20.80;46.11;100541.03;1086143;54;1106;-80
2023/10/01 18:03:00;;;;;;;;;;;;;;;20.78;46.57;100543.94;1087040;47;1341;-84
2023/10/01 18:04:45;;;;;;;;;;;;;;;20.76;46.88;100550.63;1088172;47;904;-83
2023/10/01 18:06:20;;;;;;;;;;;;;;;20.72;46.72;100550.16;1088522;47;953;-84
2023/10/01 18:07:40;;;;;;;;;;;;;;;20.72;46.77;100555.59;1088459;54;965;-82
2023/10/01 18:08:51;;;;;;;;;;;;;;;20.70;47.37;100553.06;1088345;54;1043;-82
2023/10/01 18:10:25;;;;;;;;;;;;;;;20.68;47.80;100555.16;1088439;47;911;-81
2023/10/01 18:11:32;;;;;;;;;;;;;;;20.67;47.61;100561.63;1088453;46;1052;-83
2023/10/01 18:12:50;;;;;;;;;;;;;;;20.66;47.65;100556.38;1088320;54;1434;-81
2023/10/01 18:13:56;;;;;;;;;;;;;;;20.60;47.91;100554.47;1088360;47;930;-84
2023/10/01 18:18:32;;;;;;;;;;;;;;;;;;;;;
2023/10/01 18:23:03;;;;;;;;;;;;;;;20.38;48.53;100565.38;1088300;47;1383;-83
2023/10/01 18:26:02;;;;;;;;;;;;;;;20.42;48.15;100562.06;1088450;47;1001;-84
2023/10/01 18:30:27;;;;;;;;;;;;;;;20.32;48.39;100560.72;1088400;47;940;-84
2023/10/01 18:31:40;;;;;;;;;;;;;;;20.30;48.32;100562.78;1088490;47;1370;-83
2023/10/01 18:32:46;;;;;;;;;;;;;;;20.25;48.94;100571.53;1088295;54;1327;-81
2023/10/01 18:35:23;;;;;;;;;;;;;;;20.25;48.51;100566.09;1088436;47;888;-81
2023/10/01 18:36:28;;;;;;;;;;;;;;;20.22;48.53;100572.78;1088536;54;978;-83
2023/10/01 18:37:52;;;;;;;;;;;;;;;20.16;49.25;100562.69;1088542;54;1102;-83
2023/10/01 18:38:56;;;;;;;;;;;;;;;20.13;49.18;100578.50;1088412;54;1082;-83
2023/10/01 18:50:28;;;;;;;;;;;;;;;19.85;50.08;100573.84;1088420;54;1025;-81
2023/10/01 18:51:37;;;;;;;;;;;;;;;19.83;49.69;100575.91;1088309;47;929;-81
2023/10/01 19:01:39;;;;;;;;;;;;;;;19.61;52.84;100575.91;1088172;47;887;-81
2023/10/01 19:03:17;;;;;;;;;;;;;;;;;;;;;
2023/10/01 19:06:01;;;;;;;;;;;;;;;19.60;52.83;100580.47;1088219;47;958;-81
2023/10/01 19:08:36;;;;;;;;;;;;;;;19.65;52.85;100582.59;1088083;47;912;-80
2023/10/01 19:11:29;;;;;;;;;;;;;;;19.68;53.29;100575.97;1088188;47;919;-82
2023/10/01 19:12:30;;;;;;;;;;;;;;;19.66;53.62;100584.28;1088238;47;1374;-81
2023/10/01 19:13:34;;;;;;;;;;;;;;;19.65;53.19;100571.75;1088344;47;886;-81
2023/10/01 19:14:38;;;;;;;;;;;;;;;19.65;53.28;100571.75;1088407;47;1191;-83
2023/10/01 19:20:47;;;;;;;;;;;;;;;19.64;53.87;100570.09;1088503;47;1840;-82
2023/10/01 19:25:21;;;;;;;;;;;;;;;19.36;54.76;100570.81;1088403;47;905;-80
2023/10/01 19:26:27;;;;;;;;;;;;;;;19.27;55.01;100574.66;1088425;47;984;-81
2023/10/01 19:27:38;;;;;;;;;;;;;;;19.22;55.43;100575.25;1088276;47;972;-80
2023/10/01 19:28:42;;;;;;;;;;;;;;;19.16;55.35;100570.56;1088232;54;1189;-80
2023/10/01 19:29:46;;;;;;;;;;;;;;;19.09;55.56;100578.59;1088305;54;856;-80
2023/10/01 19:30:59;;;;;;;;;;;;;;;19.06;55.95;100578.97;1088420;54;1198;-80
2023/10/01 19:33:24;;;;;;;;;;;;;;;18.86;56.17;100579.50;1088076;54;1385;-79
2023/10/01 19:34:26;;;;;;;;;;;;;;;18.81;56.16;100592.75;1087696;47;1040;-79
2023/10/01 19:35:32;;;;;;;;;;;;;;;18.74;56.58;100582.88;1087918;47;1173;-80
2023/10/01 19:36:32;;;;;;;;;;;;;;;18.62;56.23;100587.88;1087593;54;1007;-80
2023/10/01 19:37:34;;;;;;;;;;;;;;;18.54;56.48;100586.13;1087703;47;1284;-81
2023/10/01 19:43:26;;;;;;;;;;;;;;;18.24;56.72;100584.16;1088176;47;1257;-82
2023/10/01 19:44:37;;;;;;;;;;;;;;;18.25;56.54;100582.31;1088123;46;951;-79
2023/10/01 21:05:27;;;;;;;;;;;;;;;16.49;63.56;100590.50;1088368;54;1921;-81
2023/10/01 21:06:41;;;;;;;;;;;;;;;16.48;63.40;100585.28;1088451;47;963;-79
2023/10/01 21:07:46;;;;;;;;;;;;;;;16.44;63.77;100590.19;1088634;46;941;-80
2023/10/01 21:08:47;;;;;;;;;;;;;;;16.43;63.87;100588.50;1088419;46;1184;-80
2023/10/01 21:09:51;;;;;;;;;;;;;;;16.37;64.21;100584.63;1088361;47;983;-81
2023/10/01 21:11:08;;;;;;;;;;;;;;;16.38;64.11;100585.47;1088369;47;938;-81
2023/10/01 21:12:11;;;;;;;;;;;;;;;16.40;64.17;100588.81;1088367;54;1344;-81
2023/10/01 21:13:26;;;;;;;;;;;;;;;16.36;64.18;100587.50;1088380;54;1377;-81
2023/10/01 21:14:32;;;;;;;;;;;;;;;16.30;64.49;100585.47;1088396;47;937;-80
2023/10/01 21:15:37;;;;;;;;;;;;;;;16.28;64.36;100587.50;1088397;54;1008;-82
2023/10/01 21:16:40;;;;;;;;;;;;;;;16.22;64.75;100587.16;1088396;47;954;-82
2023/10/01 21:17:48;;;;;;;;;;;;;;;16.20;64.84;100586.47;1088312;47;980;-80
2023/10/01 21:18:49;;;;;;;;;;;;;;;16.20;65.03;100594.56;1088287;47;1010;-81
2023/10/01 21:20:09;;;;;;;;;;;;;;;16.22;64.76;100589.03;1088318;54;1874;-81
2023/10/01 21:21:14;;;;;;;;;;;;;;;16.21;64.83;100587.34;1088421;54;1086;-82
2023/10/01 21:22:21;;;;;;;;;;;;;;;16.27;64.33;100588.50;1088215;54;1032;-81
2023/10/01 21:23:22;;;;;;;;;;;;;;;16.33;64.23;100583.28;1088494;54;1337;-81
2023/10/01 21:24:25;;;;;;;;;;;;;;;16.35;64.02;100581.25;1088241;47;965;-80
2023/10/01 21:25:26;;;;;;;;;;;;;;;16.35;64.05;100586.63;1088276;47;1079;-79
2023/10/01 21:26:30;;;;;;;;;;;;;;;16.38;64.00;100580.91;1088376;46;953;-81
2023/10/01 21:27:32;;;;;;;;;;;;;;;16.40;64.09;100582.59;1088281;54;1182;-80
2023/10/01 21:28:36;;;;;;;;;;;;;;;16.44;63.90;100582.09;1088250;47;1016;-80
2023/10/01 21:29:39;;;;;;;;;;;;;;;16.46;63.75;100581.91;1088299;47;1065;-79
2023/10/01 21:30:44;;;;;;;;;;;;;;;16.45;63.85;100581.09;1088326;47;980;-81
2023/10/01 21:32:01;;;;;;;;;;;;;;;16.45;63.86;100578.38;1088351;47;1031;-81
2023/10/01 21:33:06;;;;;;;;;;;;;;;16.47;63.92;100575.50;1088345;46;1261;-81
2023/10/01 21:34:18;;;;;;;;;;;;;;;16.46;63.79;100577.38;1088356;54;1012;-81
2023/10/01 21:35:21;;;;;;;;;;;;;;;16.46;63.90;100569.28;1088342;46;1051;-81
2023/10/01 21:36:23;;;;;;;;;;;;;;;16.48;63.95;100574.50;1088416;54;953;-81
2023/10/01 21:37:30;;;;;;;;;;;;;;;16.48;63.95;100574.50;1088112;46;1074;-83
2023/10/01 21:38:31;;;;;;;;;;;;;;;16.45;64.30;100577.53;1088393;54;875;-82
2023/10/01 21:39:35;;;;;;;;;;;;;;;16.38;64.67;100580.09;1088444;54;877;-82
2023/10/01 21:40:37;;;;;;;;;;;;;;;16.34;64.48;100571.47;1088040;47;1843;-81
2023/10/01 21:41:40;;;;;;;;;;;;;;;16.31;64.89;100573.66;1088170;47;1207;-82
2023/10/01 21:42:41;;;;;;;;;;;;;;;16.26;64.76;100576.88;1088161;47;1352;-82
2023/10/01 21:43:47;;;;;;;;;;;;;;;16.20;65.09;100566.75;1088235;54;1038;-81
2023/10/01 21:44:52;;;;;;;;;;;;;;;16.15;65.51;100574.53;1088226;47;1190;-81
2023/10/01 21:46:04;;;;;;;;;;;;;;;16.10;65.52;100574.19;1088166;54;1627;-82
2023/10/01 21:47:07;;;;;;;;;;;;;;;16.06;65.91;100576.38;1086787;54;1387;-80
2023/10/01 21:48:20;;;;;;;;;;;;;;;16.05;65.61;100583.63;1086185;47;1061;-81
2023/10/01 21:49:21;;;;;;;;;;;;;;;16.02;65.65;100575.00;1086203;54;989;-78
2023/10/01 21:50:24;;;;;;;;;;;;;;;16.03;65.55;100577.56;1085963;54;1147;-79
2023/10/01 21:51:28;;;;;;;;;;;;;;;16.02;65.58;100573.16;1085954;54;1048;-80
2023/10/01 21:52:33;;;;;;;;;;;;;;;15.97;65.62;100589.00;1086365;47;1596;-78
2023/10/01 21:53:34;;;;;;;;;;;;;;;16.00;65.51;100574.34;1086434;54;1228;-79
2023/10/01 21:54:35;;;;;;;;;;;;;;;15.97;65.36;100578.19;1086464;54;1150;-79
2023/10/01 21:55:39;;;;;;;;;;;;;;;15.95;65.55;100580.25;1086503;47;1191;-79
2023/10/01 21:56:47;;;;;;;;;;;;;;;15.96;65.36;100571.16;1086600;54;1123;-79
2023/10/01 21:57:50;;;;;;;;;;;;;;;15.95;65.68;100574.00;1086901;54;1582;-78
2023/10/01 21:58:52;;;;;;;;;;;;;;;15.90;65.56;100571.81;1086968;47;1168;-79
2023/10/01 21:59:56;;;;;;;;;;;;;;;15.87;65.70;100574.84;1086280;47;1593;-79
2023/10/01 22:01:02;;;;;;;;;;;;;;;15.85;65.65;100574.16;1086535;47;1082;-79
2023/10/01 22:02:12;;;;;;;;;;;;;;;15.85;65.58;100574.16;1086507;47;1308;-79
2023/10/01 22:03:14;;;;;;;;;;;;;;;15.81;65.71;100576.31;1086259;47;1448;-79
2023/10/01 22:04:24;;;;;;;;;;;;;;;15.83;65.93;100573.44;1087903;47;984;-81
2023/10/01 22:05:32;;;;;;;;;;;;;;;15.81;65.81;100578.16;1088330;54;1173;-79
2023/10/01 22:06:36;;;;;;;;;;;;;;;15.84;65.75;100578.69;1088341;54;1600;-81
2023/10/01 22:08:03;;;;;;;;;;;;;;;15.82;65.86;100574.47;1088447;46;898;-80
2023/10/01 22:09:09;;;;;;;;;;;;;;;15.78;65.75;100573.94;1088599;46;1007;-83
2023/10/01 22:10:27;;;;;;;;;;;;;;;15.75;66.01;100585.91;1088327;47;950;-82
